Time;durP1;ratioP1;P1;durP2;ratioP2;P2;SDS_P1;SDS_P2;PMS_P1;PMS_P2;Temp;Humidity;BMP_temperature;BMP_pressure;BME280_temperature;BME280_humidity;BME280_pressure;Samples;Min_cycle;Max_cycle;Signal;HPM_P1;HPM_P2
2023/05/18 00:00:28;;;;;;;;;;;12.50;76.00;;;;;;5046566;28;19973;-68
2023/05/18 00:02:53;;;;;;;;;;;12.40;76.20;;;;;;5041400;28;19919;-68
2023/05/18 00:05:19;;;;;;;;;;;12.50;76.30;;;;;;5045596;28;20322;-68
2023/05/18 00:07:45;;;;;;;;;;;12.40;76.20;;;;;;5043973;28;19913;-68
2023/05/18 00:10:11;;;;;;;;;;;12.40;76.30;;;;;;5046504;28;19913;-68
2023/05/18 00:12:36;;;;;;;;;;;12.30;76.30;;;;;;5043780;28;20308;-68
2023/05/18 00:15:02;;;;;;;;;;;12.30;76.20;;;;;;5046186;28;20444;-68
2023/05/18 00:17:27;;;;;;;;;;;12.30;76.30;;;;;;5027386;28;19919;-68
2023/05/18 00:19:53;;;;;;;;;;;12.30;76.50;;;;;;5041954;28;19913;-68
2023/05/18 00:22:18;;;;;;;;;;;12.30;76.50;;;;;;5041544;28;19980;-68
2023/05/18 00:24:45;;;;;;;;;;;12.20;76.40;;;;;;5046309;28;20011;-68
2023/05/18 00:27:10;;;;;;;;;;;12.20;76.40;;;;;;5026902;28;19913;-68
2023/05/18 00:29:36;;;;;;;;;;;12.20;76.50;;;;;;5045355;28;20468;-68
2023/05/18 00:32:01;;;;;;;;;;;12.20;76.50;;;;;;5025634;28;19917;-67
2023/05/18 00:34:27;;;;;;;;;;;12.10;76.60;;;;;;5027219;28;19919;-68
2023/05/18 00:36:52;;;;;;;;;;;12.10;76.50;;;;;;5026402;28;20007;-68
2023/05/18 00:39:18;;;;;;;;;;;12.10;76.50;;;;;;5045043;28;19920;-68
2023/05/18 00:41:43;;;;;;;;;;;12.10;76.60;;;;;;5045087;28;19909;-68
2023/05/18 00:44:09;;;;;;;;;;;12.10;76.60;;;;;;5043368;28;19916;-68
2023/05/18 00:46:35;;;;;;;;;;;12.00;76.60;;;;;;5045466;28;20370;-68
2023/05/18 00:49:01;;;;;;;;;;;12.00;76.60;;;;;;5041013;28;19932;-68
2023/05/18 00:51:26;;;;;;;;;;;12.00;76.60;;;;;;5043735;28;19932;-68
2023/05/18 00:53:53;;;;;;;;;;;12.00;77.30;;;;;;5042804;28;19913;-68
2023/05/18 00:56:19;;;;;;;;;;;12.00;76.70;;;;;;5045923;28;19917;-68
2023/05/18 00:58:44;;;;;;;;;;;11.90;76.70;;;;;;5042642;28;20363;-68
2023/05/18 01:01:10;;;;;;;;;;;11.90;76.80;;;;;;5045753;28;19913;-68
2023/05/18 01:03:38;;;;;;;;;;;11.90;76.80;;;;;;5042742;28;19920;-68
2023/05/18 01:06:05;;;;;;;;;;;11.90;76.80;;;;;;5045733;28;19912;-68
2023/05/18 01:08:31;;;;;;;;;;;11.90;76.80;;;;;;5042813;28;20043;-68
2023/05/18 01:11:04;;;;;;;;;;;11.80;76.90;;;;;;5027486;28;20045;-68
2023/05/18 01:13:34;;;;;;;;;;;11.80;76.90;;;;;;5026809;28;19917;-68
2023/05/18 01:16:01;;;;;;;;;;;11.80;76.90;;;;;;5045465;28;19921;-68
2023/05/18 01:18:30;;;;;;;;;;;11.80;77.00;;;;;;5026877;28;20289;-68
2023/05/18 01:21:03;;;;;;;;;;;11.80;77.00;;;;;;5041197;28;19996;-68
2023/05/18 01:23:35;;;;;;;;;;;11.80;77.00;;;;;;5042414;28;19972;-68
2023/05/18 01:26:11;;;;;;;;;;;11.70;77.00;;;;;;5045280;28;20628;-68
2023/05/18 01:28:37;;;;;;;;;;;11.70;77.10;;;;;;5042891;28;19913;-68
2023/05/18 01:31:03;;;;;;;;;;;11.70;77.10;;;;;;5045342;28;20322;-68
2023/05/18 01:33:28;;;;;;;;;;;11.60;77.10;;;;;;5042385;28;19917;-68
2023/05/18 01:35:54;;;;;;;;;;;11.70;77.20;;;;;;5040849;28;20393;-68
2023/05/18 01:38:21;;;;;;;;;;;11.60;77.10;;;;;;5042328;28;19913;-68
2023/05/18 01:40:53;;;;;;;;;;;11.60;77.20;;;;;;5045025;28;19917;-68
2023/05/18 01:43:20;;;;;;;;;;;11.60;77.30;;;;;;5039967;28;20408;-68
2023/05/18 01:45:47;;;;;;;;;;;11.60;77.30;;;;;;5044651;28;19913;-68
2023/05/18 01:48:15;;;;;;;;;;;11.60;77.30;;;;;;5042314;28;19913;-68
2023/05/18 01:50:42;;;;;;;;;;;11.50;77.20;;;;;;5044566;28;19913;-68
2023/05/18 01:53:13;;;;;;;;;;;11.50;77.20;;;;;;5045830;28;19948;-68
2023/05/18 01:55:39;;;;;;;;;;;11.50;77.60;;;;;;5048740;28;19913;-68
2023/05/18 01:58:06;;;;;;;;;;;11.50;77.40;;;;;;5045915;28;19919;-68
2023/05/18 02:00:32;;;;;;;;;;;11.50;77.40;;;;;;5048309;28;19913;-68
2023/05/18 02:02:58;;;;;;;;;;;11.40;77.30;;;;;;5045486;28;19949;-68
2023/05/18 02:05:23;;;;;;;;;;;11.40;77.20;;;;;;5030196;28;19916;-68
2023/05/18 02:07:49;;;;;;;;;;;11.40;77.40;;;;;;5045831;28;19908;-68
2023/05/18 02:10:15;;;;;;;;;;;11.40;77.40;;;;;;5048224;28;20285;-68
2023/05/18 02:12:40;;;;;;;;;;;11.40;77.50;;;;;;5045498;28;19908;-68
2023/05/18 02:15:06;;;;;;;;;;;11.40;77.40;;;;;;5048015;28;19909;-68
2023/05/18 02:17:32;;;;;;;;;;;11.30;77.40;;;;;;5045477;28;20020;-68
2023/05/18 02:19:57;;;;;;;;;;;11.30;77.50;;;;;;5043894;28;19913;-68
2023/05/18 02:22:23;;;;;;;;;;;11.30;77.40;;;;;;5045237;28;19925;-68
2023/05/18 02:24:49;;;;;;;;;;;11.30;77.50;;;;;;5047862;28;19917;-68
2023/05/18 02:27:15;;;;;;;;;;;11.20;77.40;;;;;;5044918;28;20424;-68
2023/05/18 02:29:40;;;;;;;;;;;11.20;77.50;;;;;;5047951;28;19916;-68
2023/05/18 02:32:06;;;;;;;;;;;11.20;77.50;;;;;;5045772;28;20016;-68
2023/05/18 02:34:32;;;;;;;;;;;11.20;77.50;;;;;;5047034;28;19913;-68
2023/05/18 02:37:02;;;;;;;;;;;11.20;77.50;;;;;;5028313;28;19912;-67
2023/05/18 02:39:28;;;;;;;;;;;11.20;77.60;;;;;;5047445;28;19967;-68
2023/05/18 02:41:54;;;;;;;;;;;11.20;78.20;;;;;;5045976;28;19948;-67
2023/05/18 02:44:19;;;;;;;;;;;11.10;77.60;;;;;;5044067;28;19917;-67
2023/05/18 02:46:45;;;;;;;;;;;11.10;77.70;;;;;;5046981;28;19934;-68
2023/05/18 02:49:10;;;;;;;;;;;11.10;77.60;;;;;;5041422;28;19917;-68
2023/05/18 02:51:36;;;;;;;;;;;11.10;78.30;;;;;;5047141;28;19917;-68
2023/05/18 02:54:01;;;;;;;;;;;11.10;77.60;;;;;;5044642;28;20480;-68
2023/05/18 02:56:27;;;;;;;;;;;11.10;77.70;;;;;;5047637;28;19913;-68
2023/05/18 02:58:56;;;;;;;;;;;11.00;77.70;;;;;;5028698;28;19944;-67
2023/05/18 03:01:25;;;;;;;;;;;11.00;77.70;;;;;;5047315;28;19913;-68
2023/05/18 03:03:56;;;;;;;;;;;11.00;77.70;;;;;;5044297;28;19923;-67
2023/05/18 03:06:25;;;;;;;;;;;11.00;77.70;;;;;;5047630;28;19913;-68
2023/05/18 03:08:53;;;;;;;;;;;11.00;77.70;;;;;;5044596;28;19919;-67
2023/05/18 03:11:20;;;;;;;;;;;10.90;77.60;;;;;;5047304;28;19920;-68
2023/05/18 03:13:46;;;;;;;;;;;10.90;77.60;;;;;;5044488;28;19955;-68
2023/05/18 03:16:12;;;;;;;;;;;10.90;77.70;;;;;;5047148;28;19945;-68
2023/05/18 03:18:37;;;;;;;;;;;10.90;77.70;;;;;;5044717;28;19952;-68
2023/05/18 03:21:03;;;;;;;;;;;10.90;77.80;;;;;;5043002;28;19965;-67
2023/05/18 03:23:29;;;;;;;;;;;10.90;77.70;;;;;;5044216;28;19993;-67
2023/05/18 03:25:55;;;;;;;;;;;10.80;77.70;;;;;;5047199;28;19917;-67
2023/05/18 03:28:21;;;;;;;;;;;10.80;77.70;;;;;;5028323;28;20349;-67
2023/05/18 03:30:47;;;;;;;;;;;10.80;77.80;;;;;;5046908;28;19913;-67
2023/05/18 03:33:12;;;;;;;;;;;10.80;77.70;;;;;;5044260;28;19958;-68
2023/05/18 03:35:39;;;;;;;;;;;10.80;77.80;;;;;;5047200;28;19909;-68
2023/05/18 03:38:05;;;;;;;;;;;10.80;77.80;;;;;;5044632;28;19948;-67
2023/05/18 03:40:30;;;;;;;;;;;10.80;77.90;;;;;;5029172;28;19951;-67
2023/05/18 03:42:56;;;;;;;;;;;10.70;77.80;;;;;;5043995;28;19913;-68
2023/05/18 03:45:22;;;;;;;;;;;10.70;77.90;;;;;;5046025;28;19965;-67
2023/05/18 03:47:47;;;;;;;;;;;10.70;77.80;;;;;;5044477;28;19919;-67
2023/05/18 03:50:13;;;;;;;;;;;10.70;77.90;;;;;;5042488;28;19920;-67
2023/05/18 03:52:40;;;;;;;;;;;10.70;77.90;;;;;;5044375;28;19950;-67
2023/05/18 03:55:06;;;;;;;;;;;10.70;78.00;;;;;;5046693;28;19920;-67
2023/05/18 03:57:32;;;;;;;;;;;10.70;77.90;;;;;;5044175;28;19913;-67
2023/05/18 03:59:57;;;;;;;;;;;10.60;77.90;;;;;;5046266;28;19919;-67
2023/05/18 04:02:23;;;;;;;;;;;10.60;77.90;;;;;;5026150;28;19913;-67
2023/05/18 04:04:52;;;;;;;;;;;10.60;77.90;;;;;;5046331;28;19965;-67
2023/05/18 04:07:20;;;;;;;;;;;10.60;78.00;;;;;;5044233;28;19935;-67
2023/05/18 04:09:46;;;;;;;;;;;10.60;77.90;;;;;;5046405;28;20078;-67
2023/05/18 04:12:12;;;;;;;;;;;10.60;78.00;;;;;;5043283;28;20065;-67
2023/05/18 04:14:37;;;;;;;;;;;10.60;78.00;;;;;;5045831;28;19917;-67
2023/05/18 04:17:06;;;;;;;;;;;10.50;78.00;;;;;;5044767;28;20348;-67
2023/05/18 04:19:35;;;;;;;;;;;10.50;78.10;;;;;;5041340;28;20299;-68
2023/05/18 04:22:03;;;;;;;;;;;10.50;78.00;;;;;;5044385;28;19976;-68
2023/05/18 04:24:31;;;;;;;;;;;10.50;78.00;;;;;;5045326;28;19920;-67
2023/05/18 04:26:58;;;;;;;;;;;10.50;78.10;;;;;;5044806;28;19913;-68
2023/05/18 04:29:23;;;;;;;;;;;10.50;78.10;;;;;;5044014;28;19912;-67
2023/05/18 04:31:49;;;;;;;;;;;10.50;78.10;;;;;;5045285;28;19996;-68
2023/05/18 04:34:16;;;;;;;;;;;10.50;78.20;;;;;;5044164;28;20465;-67
2023/05/18 04:36:43;;;;;;;;;;;10.50;78.10;;;;;;5045839;28;19955;-67
2023/05/18 04:39:08;;;;;;;;;;;10.50;78.10;;;;;;5043119;28;19908;-67
2023/05/18 04:41:34;;;;;;;;;;;10.50;78.20;;;;;;5046243;28;19961;-67
2023/05/18 04:44:00;;;;;;;;;;;10.40;78.20;;;;;;5040924;28;19921;-67
2023/05/18 04:46:27;;;;;;;;;;;10.50;78.30;;;;;;5045840;28;19913;-68
2023/05/18 04:48:56;;;;;;;;;;;10.40;78.20;;;;;;5041584;28;19963;-67
2023/05/18 04:51:24;;;;;;;;;;;10.40;78.30;;;;;;5042735;28;19917;-67
2023/05/18 04:53:50;;;;;;;;;;;10.40;78.30;;;;;;5043176;28;19912;-67
2023/05/18 04:56:16;;;;;;;;;;;10.40;78.40;;;;;;5045871;28;20011;-67
2023/05/18 04:58:44;;;;;;;;;;;10.40;78.40;;;;;;5039595;28;19992;-67
2023/05/18 05:01:11;;;;;;;;;;;10.40;78.40;;;;;;5045703;28;19913;-67
2023/05/18 05:03:36;;;;;;;;;;;10.40;78.40;;;;;;5042152;28;19977;-67
2023/05/18 05:06:02;;;;;;;;;;;10.40;78.50;;;;;;5045337;28;19944;-67
2023/05/18 05:08:27;;;;;;;;;;;10.40;78.50;;;;;;5042808;28;19966;-67
2023/05/18 05:10:53;;;;;;;;;;;10.40;78.50;;;;;;5045363;28;19913;-67
2023/05/18 05:13:18;;;;;;;;;;;10.50;78.50;;;;;;5042428;28;19913;-68
2023/05/18 05:15:44;;;;;;;;;;;10.40;78.50;;;;;;5045381;28;19909;-67
2023/05/18 05:18:09;;;;;;;;;;;10.50;78.60;;;;;;5043018;28;19995;-67
2023/05/18 05:20:35;;;;;;;;;;;10.50;78.60;;;;;;5041251;28;19948;-67
2023/05/18 05:23:00;;;;;;;;;;;10.40;78.60;;;;;;5042206;28;19955;-68
2023/05/18 05:25:26;;;;;;;;;;;10.50;78.60;;;;;;5045173;28;19947;-68
2023/05/18 05:27:51;;;;;;;;;;;10.40;78.60;;;;;;5042653;28;19921;-68
2023/05/18 05:30:17;;;;;;;;;;;10.50;78.60;;;;;;5045048;28;19913;-68
2023/05/18 05:32:42;;;;;;;;;;;10.40;78.60;;;;;;5042496;28;19909;-68
2023/05/18 05:35:08;;;;;;;;;;;10.50;78.70;;;;;;5045078;28;19991;-67
2023/05/18 05:37:34;;;;;;;;;;;10.50;78.70;;;;;;5042890;28;19921;-68
2023/05/18 05:39:59;;;;;;;;;;;10.50;78.60;;;;;;5045123;28;19990;-67
2023/05/18 05:42:25;;;;;;;;;;;10.50;78.70;;;;;;5042340;28;19913;-67
2023/05/18 05:44:51;;;;;;;;;;;10.50;78.80;;;;;;5044310;28;19921;-67
2023/05/18 05:47:16;;;;;;;;;;;10.40;78.70;;;;;;5042390;28;19921;-68
2023/05/18 05:49:42;;;;;;;;;;;10.50;78.80;;;;;;5041299;28;19951;-67
2023/05/18 05:52:07;;;;;;;;;;;10.40;78.80;;;;;;5043043;28;19920;-67
2023/05/18 05:54:33;;;;;;;;;;;10.50;78.80;;;;;;5044157;28;19920;-67
2023/05/18 05:56:59;;;;;;;;;;;10.40;78.80;;;;;;5025087;28;20051;-67
2023/05/18 05:59:24;;;;;;;;;;;10.40;78.80;;;;;;5043709;28;19913;-68
2023/05/18 06:01:50;;;;;;;;;;;10.40;78.90;;;;;;5043693;28;20416;-67
2023/05/18 06:04:15;;;;;;;;;;;10.40;79.00;;;;;;5043215;28;19965;-67
2023/05/18 06:06:42;;;;;;;;;;;10.40;79.10;;;;;;5044614;28;19909;-67
2023/05/18 06:09:08;;;;;;;;;;;10.40;79.10;;;;;;5042652;28;19963;-68
2023/05/18 06:11:34;;;;;;;;;;;10.40;79.10;;;;;;5044783;28;19917;-68
2023/05/18 06:13:59;;;;;;;;;;;10.40;79.10;;;;;;5041831;28;19920;-68
2023/05/18 06:16:25;;;;;;;;;;;10.40;79.10;;;;;;5044673;28;19913;-68
2023/05/18 06:18:50;;;;;;;;;;;10.40;79.10;;;;;;5041169;28;19995;-67
2023/05/18 06:21:16;;;;;;;;;;;10.40;79.10;;;;;;5041347;28;19917;-67
2023/05/18 06:23:43;;;;;;;;;;;10.40;79.20;;;;;;5025611;28;19951;-68
2023/05/18 06:26:09;;;;;;;;;;;10.40;79.10;;;;;;5044448;28;19913;-68
2023/05/18 06:28:34;;;;;;;;;;;10.40;79.20;;;;;;5042037;28;20004;-67
2023/05/18 06:31:00;;;;;;;;;;;10.50;79.10;;;;;;5044394;28;19920;-67
2023/05/18 06:33:25;;;;;;;;;;;10.50;79.10;;;;;;5041478;28;19960;-67
2023/05/18 06:35:51;;;;;;;;;;;10.50;79.10;;;;;;5046520;28;20269;-67
2023/05/18 06:38:16;;;;;;;;;;;10.50;79.10;;;;;;5045077;28;20024;-67
2023/05/18 06:40:42;;;;;;;;;;;10.50;79.10;;;;;;5047686;28;21166;-68
2023/05/18 06:43:07;;;;;;;;;;;10.50;79.10;;;;;;5045164;28;19913;-68
2023/05/18 06:45:33;;;;;;;;;;;10.50;79.10;;;;;;5047008;28;19966;-68
2023/05/18 06:47:59;;;;;;;;;;;10.60;79.10;;;;;;5045002;28;19924;-68
2023/05/18 06:50:24;;;;;;;;;;;10.60;79.00;;;;;;5043528;28;19916;-67
2023/05/18 06:52:50;;;;;;;;;;;10.60;79.00;;;;;;5044601;27;19920;-67
2023/05/18 06:55:16;;;;;;;;;;;10.60;79.00;;;;;;5047639;28;19940;-67
2023/05/18 06:57:41;;;;;;;;;;;10.60;79.00;;;;;;5040320;28;19909;-68
2023/05/18 07:00:07;;;;;;;;;;;10.60;78.90;;;;;;5047345;28;19913;-68
2023/05/18 07:02:33;;;;;;;;;;;10.60;78.90;;;;;;5044616;28;19989;-68
2023/05/18 07:05:00;;;;;;;;;;;10.70;79.00;;;;;;5047363;28;19916;-68
2023/05/18 07:07:25;;;;;;;;;;;10.70;78.80;;;;;;5044675;28;19920;-68
2023/05/18 07:09:51;;;;;;;;;;;10.70;78.90;;;;;;5047277;28;19913;-68
2023/05/18 07:12:16;;;;;;;;;;;10.70;78.90;;;;;;5044415;28;20461;-68
2023/05/18 07:14:42;;;;;;;;;;;10.70;78.60;;;;;;5046947;28;19952;-68
2023/05/18 07:17:07;;;;;;;;;;;10.70;78.80;;;;;;5045440;28;19919;-68
2023/05/18 07:19:34;;;;;;;;;;;10.80;78.90;;;;;;5042274;28;20410;-68
2023/05/18 07:21:59;;;;;;;;;;;10.80;78.90;;;;;;5045227;28;19925;-68
2023/05/18 07:24:25;;;;;;;;;;;10.80;78.70;;;;;;5028195;28;19924;-68
2023/05/18 07:26:50;;;;;;;;;;;10.80;78.80;;;;;;5027989;28;19939;-68
2023/05/18 07:29:16;;;;;;;;;;;10.80;78.80;;;;;;5045248;28;19913;-68
2023/05/18 07:31:41;;;;;;;;;;;10.90;78.80;;;;;;5046449;28;20463;-68
2023/05/18 07:34:07;;;;;;;;;;;10.90;78.70;;;;;;5044802;28;19920;-68
2023/05/18 07:36:32;;;;;;;;;;;10.90;78.70;;;;;;5046900;28;19948;-68
2023/05/18 07:38:59;;;;;;;;;;;10.90;78.60;;;;;;5044108;28;19963;-68
2023/05/18 07:41:25;;;;;;;;;;;10.90;78.60;;;;;;5047230;28;19913;-68
2023/05/18 07:43:51;;;;;;;;;;;11.00;78.70;;;;;;5041679;28;19973;-68
2023/05/18 07:46:16;;;;;;;;;;;11.00;78.60;;;;;;5046526;28;19969;-68
2023/05/18 07:48:42;;;;;;;;;;;11.00;78.60;;;;;;5044059;28;19913;-68
2023/05/18 07:51:07;;;;;;;;;;;11.00;78.50;;;;;;5042879;28;20014;-68
2023/05/18 07:53:33;;;;;;;;;;;11.00;78.50;;;;;;5043952;28;19920;-68
2023/05/18 07:55:59;;;;;;;;;;;11.00;78.50;;;;;;5046887;28;19917;-68
2023/05/18 07:58:24;;;;;;;;;;;11.10;78.50;;;;;;5043648;28;19913;-68
2023/05/18 08:00:50;;;;;;;;;;;11.10;78.40;;;;;;5046387;28;19963;-68
2023/05/18 08:03:17;;;;;;;;;;;11.10;78.30;;;;;;5043539;28;19920;-68
2023/05/18 08:05:42;;;;;;;;;;;11.10;78.40;;;;;;5042446;28;20412;-68
2023/05/18 08:08:10;;;;;;;;;;;11.20;78.30;;;;;;5043562;28;19912;-68
2023/05/18 08:10:36;;;;;;;;;;;11.20;78.30;;;;;;5046482;28;19912;-68
2023/05/18 08:13:02;;;;;;;;;;;11.20;78.30;;;;;;5043910;28;20023;-68
2023/05/18 08:15:27;;;;;;;;;;;11.20;78.30;;;;;;5046062;28;20495;-68
2023/05/18 08:17:53;;;;;;;;;;;11.20;78.20;;;;;;5043172;28;19923;-68
2023/05/18 08:20:19;;;;;;;;;;;11.30;78.20;;;;;;5041515;28;20000;-68
2023/05/18 08:22:45;;;;;;;;;;;11.30;78.00;;;;;;5042744;28;20003;-68
2023/05/18 08:25:10;;;;;;;;;;;11.30;78.10;;;;;;5045704;28;19921;-68
2023/05/18 08:27:36;;;;;;;;;;;11.40;78.10;;;;;;5044725;28;19921;-68
2023/05/18 08:30:01;;;;;;;;;;;11.40;78.10;;;;;;5045532;28;19991;-68
2023/05/18 08:32:27;;;;;;;;;;;11.40;78.00;;;;;;5042759;28;19913;-68
2023/05/18 08:34:53;;;;;;;;;;;11.40;78.00;;;;;;5045227;28;19921;-68
2023/05/18 08:37:18;;;;;;;;;;;11.50;78.00;;;;;;5030287;28;20003;-68
2023/05/18 08:39:45;;;;;;;;;;;11.50;78.00;;;;;;5045355;28;20003;-68
2023/05/18 08:42:42;;;;;;;;;;;11.50;77.90;;;;;;5043212;28;20282;-68
2023/05/18 08:45:14;;;;;;;;;;;11.50;77.90;;;;;;5021105;28;20435;-68
2023/05/18 08:47:40;;;;;;;;;;;11.50;77.80;;;;;;5038332;28;19977;-68
2023/05/18 08:50:06;;;;;;;;;;;11.60;77.80;;;;;;5033302;27;19999;-68
2023/05/18 08:52:34;;;;;;;;;;;11.60;77.80;;;;;;5042464;28;19920;-68
2023/05/18 08:55:01;;;;;;;;;;;11.60;77.70;;;;;;5045497;28;20615;-68
2023/05/18 08:57:29;;;;;;;;;;;11.70;77.70;;;;;;5044612;28;19912;-68
2023/05/18 08:59:55;;;;;;;;;;;11.70;77.70;;;;;;5045112;28;20375;-68
2023/05/18 09:02:21;;;;;;;;;;;11.70;77.60;;;;;;5045086;28;19995;-68
2023/05/18 09:04:47;;;;;;;;;;;11.80;77.50;;;;;;5045202;28;19923;-68
2023/05/18 09:07:12;;;;;;;;;;;11.80;78.20;;;;;;5041567;28;19913;-68
2023/05/18 09:09:39;;;;;;;;;;;11.80;77.40;;;;;;5039801;28;19909;-68
2023/05/18 09:12:05;;;;;;;;;;;11.90;77.40;;;;;;5045776;28;19959;-69
2023/05/18 09:14:30;;;;;;;;;;;11.90;77.40;;;;;;5027403;28;19948;-68
2023/05/18 09:16:56;;;;;;;;;;;11.90;77.30;;;;;;5045448;28;19916;-69
2023/05/18 09:19:23;;;;;;;;;;;11.90;77.30;;;;;;5027351;28;19917;-68
2023/05/18 09:21:49;;;;;;;;;;;12.00;77.30;;;;;;5045019;28;19921;-68
2023/05/18 09:24:14;;;;;;;;;;;12.00;77.10;;;;;;5027350;28;19923;-68
2023/05/18 09:26:40;;;;;;;;;;;12.10;77.20;;;;;;5045349;28;19920;-69
2023/05/18 09:29:26;;;;;;;;;;;12.10;77.10;;;;;;5045468;28;19940;-69
2023/05/18 09:31:53;;;;;;;;;;;12.10;77.10;;;;;;5044953;28;20398;-68
2023/05/18 09:34:18;;;;;;;;;;;12.20;77.10;;;;;;5045342;28;20349;-68
2023/05/18 09:36:51;;;;;;;;;;;12.20;76.90;;;;;;5045098;28;19919;-68
2023/05/18 09:39:17;;;;;;;;;;;12.20;76.80;;;;;;5045256;28;20863;-69
2023/05/18 09:41:42;;;;;;;;;;;12.30;76.80;;;;;;5045077;28;19920;-69
2023/05/18 09:44:08;;;;;;;;;;;12.40;76.70;;;;;;5042309;28;19917;-69
2023/05/18 09:46:35;;;;;;;;;;;12.40;76.60;;;;;;5044263;28;19919;-69
2023/05/18 09:49:02;;;;;;;;;;;12.50;76.50;;;;;;5062653;27;19975;-69
2023/05/18 09:51:28;;;;;;;;;;;12.50;76.40;;;;;;5044423;28;19922;-70
2023/05/18 09:53:55;;;;;;;;;;;12.60;76.20;;;;;;5044356;28;20253;-70
2023/05/18 09:56:21;;;;;;;;;;;12.70;76.20;;;;;;5044724;28;19948;-70
2023/05/18 09:58:47;;;;;;;;;;;12.70;76.10;;;;;;5074915;27;19931;-70
2023/05/18 10:01:12;;;;;;;;;;;12.80;75.80;;;;;;5097554;27;20337;-69
2023/05/18 10:03:39;;;;;;;;;;;12.80;75.80;;;;;;5044113;28;20008;-70
2023/05/18 10:06:08;;;;;;;;;;;12.80;75.90;;;;;;5043890;28;19962;-70
2023/05/18 10:08:35;;;;;;;;;;;12.90;75.80;;;;;;5033586;28;19913;-70
2023/05/18 10:11:00;;;;;;;;;;;13.00;75.70;;;;;;5046765;28;19917;-71
2023/05/18 10:13:27;;;;;;;;;;;13.00;75.30;;;;;;5047718;28;19916;-70
2023/05/18 10:15:57;;;;;;;;;;;13.10;75.20;;;;;;5046952;28;19924;-70
2023/05/18 10:18:24;;;;;;;;;;;13.20;75.30;;;;;;5035626;28;19977;-69
2023/05/18 10:20:50;;;;;;;;;;;13.20;75.00;;;;;;5047248;28;19991;-69
2023/05/18 10:23:17;;;;;;;;;;;13.30;75.30;;;;;;5047871;28;19938;-69
2023/05/18 10:25:44;;;;;;;;;;;13.30;75.50;;;;;;5048156;28;19913;-69
2023/05/18 10:28:10;;;;;;;;;;;13.40;75.50;;;;;;5048222;28;20506;-69
2023/05/18 10:30:36;;;;;;;;;;;13.50;75.50;;;;;;5046519;28;19920;-69
2023/05/18 10:33:03;;;;;;;;;;;13.50;75.50;;;;;;5047724;28;19913;-69
2023/05/18 10:35:29;;;;;;;;;;;13.50;75.70;;;;;;5047739;28;19917;-69
2023/05/18 10:37:56;;;;;;;;;;;13.50;75.80;;;;;;5047972;28;19916;-69
2023/05/18 10:40:23;;;;;;;;;;;13.70;75.80;;;;;;5047895;28;20008;-69
2023/05/18 10:42:49;;;;;;;;;;;13.80;75.80;;;;;;5047722;28;19969;-69
2023/05/18 10:45:15;;;;;;;;;;;13.80;75.80;;;;;;5045278;28;20334;-69
2023/05/18 10:47:42;;;;;;;;;;;13.90;75.70;;;;;;5032089;28;20003;-69
2023/05/18 10:50:07;;;;;;;;;;;14.00;75.50;;;;;;5047308;28;19977;-69
2023/05/18 10:52:35;;;;;;;;;;;14.10;75.60;;;;;;5047581;28;19913;-69
2023/05/18 10:55:01;;;;;;;;;;;14.20;75.50;;;;;;5029715;28;19913;-69
2023/05/18 10:57:33;;;;;;;;;;;14.30;75.50;;;;;;5047935;28;19909;-69
2023/05/18 10:59:58;;;;;;;;;;;14.50;75.40;;;;;;5047266;28;20465;-69
2023/05/18 11:02:25;;;;;;;;;;;14.50;75.30;;;;;;5047505;28;19912;-69
2023/05/18 11:04:52;;;;;;;;;;;14.70;75.30;;;;;;5047230;28;19969;-69
2023/05/18 11:07:19;;;;;;;;;;;14.70;75.70;;;;;;5047552;28;20444;-69
2023/05/18 11:09:47;;;;;;;;;;;14.70;75.50;;;;;;5047309;28;19913;-69
2023/05/18 11:12:13;;;;;;;;;;;14.80;76.00;;;;;;5047106;28;19912;-69
2023/05/18 11:14:49;;;;;;;;;;;14.90;75.60;;;;;;5029205;28;20454;-69
2023/05/18 11:17:24;;;;;;;;;;;15.10;75.50;;;;;;5047244;28;19996;-69
2023/05/18 11:20:08;;;;;;;;;;;15.10;75.30;;;;;;5035142;28;20250;-69
2023/05/18 11:22:40;;;;;;;;;;;15.30;75.40;;;;;;5026900;28;19961;-69
2023/05/18 11:25:09;;;;;;;;;;;15.40;75.20;;;;;;5042489;28;20271;-69
2023/05/18 11:27:34;;;;;;;;;;;15.40;75.30;;;;;;5041584;28;20417;-69
2023/05/18 11:30:00;;;;;;;;;;;15.60;75.30;;;;;;5046206;28;19913;-69
2023/05/18 11:32:30;;;;;;;;;;;15.60;75.50;;;;;;5046345;28;19913;-70
2023/05/18 11:34:56;;;;;;;;;;;15.70;75.10;;;;;;5046276;28;20334;-69
2023/05/18 11:37:37;;;;;;;;;;;15.80;75.40;;;;;;5046672;28;19913;-69
2023/05/18 11:40:04;;;;;;;;;;;15.90;75.40;;;;;;5028971;28;20357;-69
2023/05/18 11:42:33;;;;;;;;;;;15.90;75.40;;;;;;5046186;28;19909;-69
2023/05/18 11:45:09;;;;;;;;;;;16.00;75.40;;;;;;5033899;28;19920;-70
2023/05/18 11:47:35;;;;;;;;;;;16.10;75.30;;;;;;5046455;28;19944;-69
2023/05/18 11:50:01;;;;;;;;;;;16.20;75.00;;;;;;5046393;28;19955;-69
2023/05/18 11:52:27;;;;;;;;;;;16.30;75.20;;;;;;5046573;28;20576;-70
2023/05/18 11:54:59;;;;;;;;;;;16.30;75.30;;;;;;5046784;28;19952;-69
2023/05/18 11:57:33;;;;;;;;;;;16.40;75.30;;;;;;5046634;28;20318;-70
2023/05/18 12:00:00;;;;;;;;;;;16.50;75.50;;;;;;5046475;28;20005;-70
2023/05/18 12:02:30;;;;;;;;;;;16.60;75.40;;;;;;5046491;28;19917;-70
2023/05/18 12:04:59;;;;;;;;;;;16.70;75.40;;;;;;5040345;28;19976;-69
2023/05/18 12:07:25;;;;;;;;;;;16.70;75.50;;;;;;5046375;28;19909;-70
2023/05/18 12:09:51;;;;;;;;;;;16.80;75.40;;;;;;5046654;28;19975;-69
2023/05/18 12:12:18;;;;;;;;;;;16.80;75.40;;;;;;5046268;28;19951;-69
2023/05/18 12:14:53;;;;;;;;;;;16.90;75.70;;;;;;5061465;28;19920;-69
2023/05/18 12:17:19;;;;;;;;;;;16.90;76.00;;;;;;5045885;28;20297;-69
2023/05/18 12:19:46;;;;;;;;;;;17.00;75.80;;;;;;5046273;28;19915;-69
2023/05/18 12:22:12;;;;;;;;;;;17.10;75.60;;;;;;5045928;28;19927;-70
2023/05/18 12:24:38;;;;;;;;;;;17.10;76.00;;;;;;5046018;28;19920;-69
2023/05/18 12:27:05;;;;;;;;;;;17.20;75.60;;;;;;5046258;28;19920;-69
2023/05/18 12:29:31;;;;;;;;;;;17.20;75.80;;;;;;5046080;28;19913;-70
2023/05/18 12:31:57;;;;;;;;;;;17.30;75.70;;;;;;5027401;28;19920;-71
2023/05/18 12:34:26;;;;;;;;;;;17.40;75.80;;;;;;5045809;28;19912;-70
2023/05/18 12:36:52;;;;;;;;;;;17.40;75.90;;;;;;5045924;28;19948;-69
2023/05/18 12:39:18;;;;;;;;;;;17.40;75.80;;;;;;5028069;28;19917;-70
2023/05/18 12:41:44;;;;;;;;;;;17.40;75.70;;;;;;5045927;28;19966;-69
2023/05/18 12:44:09;;;;;;;;;;;17.50;75.90;;;;;;5043657;28;19963;-69
2023/05/18 12:46:35;;;;;;;;;;;17.60;76.00;;;;;;5045488;28;19965;-70
2023/05/18 12:49:03;;;;;;;;;;;17.60;76.70;;;;;;5045635;28;19939;-69
2023/05/18 12:51:35;;;;;;;;;;;17.70;76.10;;;;;;5045589;28;19916;-70
2023/05/18 12:54:01;;;;;;;;;;;17.70;76.00;;;;;;5030071;28;20390;-69
2023/05/18 12:56:27;;;;;;;;;;;17.80;75.90;;;;;;5046044;28;19989;-70
2023/05/18 12:58:53;;;;;;;;;;;17.80;75.80;;;;;;5046140;28;19913;-70
2023/05/18 13:01:19;;;;;;;;;;;17.90;76.10;;;;;;5045833;28;19961;-69
2023/05/18 13:03:45;;;;;;;;;;;17.90;75.80;;;;;;5045315;28;19917;-69
2023/05/18 13:06:10;;;;;;;;;;;18.00;75.90;;;;;;5045582;28;19985;-70
2023/05/18 13:08:36;;;;;;;;;;;18.00;75.90;;;;;;5045520;28;19916;-70
2023/05/18 13:11:05;;;;;;;;;;;18.10;75.90;;;;;;5045795;28;19939;-70
2023/05/18 13:13:31;;;;;;;;;;;18.10;76.00;;;;;;5045135;28;19916;-70
2023/05/18 13:15:59;;;;;;;;;;;18.20;76.10;;;;;;5037186;28;19913;-70
2023/05/18 13:18:26;;;;;;;;;;;18.30;75.70;;;;;;5045168;28;19913;-70
2023/05/18 13:20:52;;;;;;;;;;;18.30;75.60;;;;;;5045240;28;19927;-70
2023/05/18 13:23:20;;;;;;;;;;;18.40;75.60;;;;;;5045159;28;19917;-70
2023/05/18 13:25:46;;;;;;;;;;;18.40;75.40;;;;;;5045501;28;20350;-70
2023/05/18 13:28:12;;;;;;;;;;;18.40;75.10;;;;;;5045122;28;19965;-69
2023/05/18 13:30:38;;;;;;;;;;;18.50;75.40;;;;;;5044423;28;19916;-69
2023/05/18 13:33:09;;;;;;;;;;;18.50;75.50;;;;;;5045033;28;19919;-69
2023/05/18 13:35:35;;;;;;;;;;;18.60;75.50;;;;;;5045148;28;19919;-70
2023/05/18 13:38:01;;;;;;;;;;;18.70;75.10;;;;;;5045132;28;19909;-70
2023/05/18 13:40:27;;;;;;;;;;;18.70;75.10;;;;;;5027048;28;19920;-69
2023/05/18 13:42:52;;;;;;;;;;;18.80;75.00;;;;;;5044906;28;19951;-69
2023/05/18 13:45:20;;;;;;;;;;;18.90;75.00;;;;;;5047279;28;19923;-69
2023/05/18 13:47:49;;;;;;;;;;;18.90;74.70;;;;;;5048614;28;19919;-69
2023/05/18 13:50:15;;;;;;;;;;;19.00;74.70;;;;;;5030248;28;19909;-70
2023/05/18 13:52:40;;;;;;;;;;;19.00;74.40;;;;;;5048336;28;19919;-69
2023/05/18 13:55:06;;;;;;;;;;;19.10;74.30;;;;;;5048745;28;19909;-69
2023/05/18 13:57:32;;;;;;;;;;;19.10;74.00;;;;;;5048767;28;19917;-69
2023/05/18 13:59:58;;;;;;;;;;;19.10;73.90;;;;;;5030732;28;19920;-69
2023/05/18 14:02:24;;;;;;;;;;;19.20;73.90;;;;;;5030641;28;19947;-69
2023/05/18 14:04:50;;;;;;;;;;;19.20;74.10;;;;;;5048235;28;20003;-69
2023/05/18 14:07:15;;;;;;;;;;;19.30;73.70;;;;;;5048403;28;19996;-70
2023/05/18 14:09:41;;;;;;;;;;;19.40;73.60;;;;;;5048360;28;19909;-69
2023/05/18 14:12:09;;;;;;;;;;;19.40;73.70;;;;;;5048111;28;19921;-69